Time;durP1;ratioP1;P1;durP2;ratioP2;P2;SDS_P1;SDS_P2;PMS_P1;PMS_P2;Temp;Humidity;BMP_temperature;BMP_pressure;BME280_temperature;BME280_humidity;BME280_pressure;Samples;Min_cycle;Max_cycle;Signal;HPM_P1;HPM_P2
2021/04/17 00:02:06;;;;;;;3.33;3.00;;;16.70;28.40;;;;;;5023820;28;20033;-37
2021/04/17 00:04:33;;;;;;;3.05;2.83;;;16.70;28.40;;;;;;5025750;28;20044;-39
2021/04/17 00:06:58;;;;;;;3.20;3.00;;;16.70;28.40;;;;;;5030222;28;20022;-35
2021/04/17 00:09:27;;;;;;;4.00;2.90;;;16.80;28.50;;;;;;5026725;28;20087;-36
2021/04/17 00:11:54;;;;;;;;;;;16.70;28.50;;;;;;5024350;28;20034;-38
2021/04/17 00:14:23;;;;;;;3.10;2.80;;;16.70;28.50;;;;;;5020810;28;19909;-38
2021/04/17 00:16:49;;;;;;;;;;;16.70;29.30;;;;;;5027286;28;20021;-42
2021/04/17 00:19:15;;;;;;;3.17;2.85;;;16.70;28.50;;;;;;5026787;28;19912;-39
2021/04/17 00:21:40;;;;;;;3.40;2.97;;;16.70;28.60;;;;;;5032123;28;20055;-36
2021/04/17 00:24:07;;;;;;;3.38;3.08;;;16.70;28.60;;;;;;5026459;28;20067;-37
2021/04/17 00:26:34;;;;;;;3.40;3.10;;;16.70;28.50;;;;;;5030490;28;20038;-39
2021/04/17 00:29:00;;;;;;;3.40;3.10;;;16.70;28.50;;;;;;5030868;28;20053;-40
2021/04/17 00:31:27;;;;;;;3.30;2.80;;;16.70;28.50;;;;;;5031668;28;20021;-38
2021/04/17 00:33:52;;;;;;;3.67;3.35;;;16.70;28.50;;;;;;5034022;28;20026;-36
2021/04/17 00:36:18;;;;;;;3.55;3.25;;;16.70;28.40;;;;;;5029988;28;20466;-37
2021/04/17 00:38:44;;;;;;;3.35;3.05;;;16.70;28.50;;;;;;5033198;28;20378;-40
2021/04/17 00:41:09;;;;;;;3.40;3.10;;;16.70;28.50;;;;;;5035594;28;20385;-39
2021/04/17 00:43:35;;;;;;;3.15;2.90;;;16.70;28.50;;;;;;5036806;28;20033;-36
2021/04/17 00:46:01;;;;;;;3.58;3.08;;;16.70;28.50;;;;;;5031290;28;20013;-39
2021/04/17 00:48:27;;;;;;;3.13;2.83;;;16.70;28.50;;;;;;5027919;28;20017;-36
2021/04/17 00:50:52;;;;;;;3.92;3.28;;;16.70;28.50;;;;;;5029019;28;20094;-36
2021/04/17 00:53:18;;;;;;;3.28;2.97;;;16.70;28.40;;;;;;5036462;28;20032;-39
2021/04/17 00:55:44;;;;;;;4.30;3.10;;;16.70;28.40;;;;;;5024361;28;20107;-34
2021/04/17 00:58:10;;;;;;;3.00;2.80;;;16.60;28.40;;;;;;5023728;28;20488;-37
2021/04/17 01:00:37;;;;;;;3.47;3.17;;;16.60;28.40;;;;;;5027420;28;20496;-39
2021/04/17 01:03:08;;;;;;;3.28;2.97;;;16.60;28.40;;;;;;5035992;28;20104;-36
2021/04/17 01:05:37;;;;;;;3.38;3.03;;;16.60;28.40;;;;;;5016175;28;20033;-37
2021/04/17 01:08:06;;;;;;;3.50;3.20;;;16.60;28.50;;;;;;5038987;28;20017;-34
2021/04/17 01:10:37;;;;;;;3.10;2.90;;;16.60;28.50;;;;;;5049013;28;20032;-33
2021/04/17 01:13:03;;;;;;;3.30;3.00;;;16.60;28.50;;;;;;5044906;28;20519;-37
2021/04/17 01:15:30;;;;;;;3.70;3.20;;;16.60;28.50;;;;;;5036948;28;20179;-35
2021/04/17 01:17:57;;;;;;;3.67;3.08;;;16.60;28.50;;;;;;5039899;28;20031;-37
2021/04/17 01:20:39;;;;;;;3.45;3.15;;;16.60;28.40;;;;;;5043883;28;20037;-35
2021/04/17 01:23:33;;;;;;;3.60;3.20;;;16.60;28.50;;;;;;5026942;28;20503;-38
2021/04/17 01:26:06;;;;;;;3.33;3.03;;;16.60;28.50;;;;;;5046755;28;20025;-38
2021/04/17 01:28:36;;;;;;;3.38;3.08;;;16.60;28.50;;;;;;5048498;28;20024;-36
2021/04/17 01:31:04;;;;;;;3.35;3.05;;;16.60;28.50;;;;;;5048044;28;20022;-41
2021/04/17 01:33:35;;;;;;;3.85;3.10;;;16.60;28.50;;;;;;5032884;28;20032;-38
2021/04/17 01:36:04;;;;;;;3.38;3.08;;;16.50;28.50;;;;;;5046110;28;20017;-38
2021/04/17 01:38:34;;;;;;;3.13;2.88;;;16.50;28.40;;;;;;5040400;28;20021;-39
2021/04/17 01:41:03;;;;;;;3.28;2.97;;;16.60;28.50;;;;;;5045157;28;20064;-40
2021/04/17 01:43:30;;;;;;;3.40;2.90;;;16.50;28.50;;;;;;5040643;28;20033;-37
2021/04/17 01:46:01;;;;;;;3.28;2.97;;;16.50;28.50;;;;;;5043848;28;20029;-38
2021/04/17 01:48:29;;;;;;;3.20;2.90;;;16.50;28.40;;;;;;5052242;28;20082;-37
2021/04/17 01:50:56;;;;;;;3.75;3.20;;;16.60;28.50;;;;;;5031214;28;20143;-37
2021/04/17 01:53:24;;;;;;;3.20;2.97;;;16.60;28.50;;;;;;5024210;28;20060;-35
2021/04/17 01:55:51;;;;;;;3.10;2.80;;;16.60;28.40;;;;;;5027888;28;20048;-38
2021/04/17 01:58:21;;;;;;;3.30;3.00;;;16.50;28.40;;;;;;5040540;28;20044;-38
2021/04/17 02:00:51;;;;;;;3.42;3.13;;;16.50;28.40;;;;;;5008184;28;20045;-38
2021/04/17 02:03:17;;;;;;;3.55;2.78;;;16.50;28.40;;;;;;5037149;28;20079;-38
2021/04/17 02:05:49;;;;;;;3.10;2.80;;;16.50;28.40;;;;;;5022414;28;20037;-36
2021/04/17 02:08:15;;;;;;;3.22;2.92;;;16.50;28.50;;;;;;5042297;28;20034;-37
2021/04/17 02:10:41;;;;;;;3.50;3.20;;;16.50;28.40;;;;;;5021610;28;20485;-37
2021/04/17 02:13:09;;;;;;;3.58;3.10;;;16.50;28.40;;;;;;5037233;28;20036;-36
2021/04/17 02:15:39;;;;;;;2.90;2.70;;;16.50;28.40;;;;;;5030014;28;20030;-38
2021/04/17 02:18:38;;;;;;;3.42;3.13;;;16.50;28.40;;;;;;5041911;28;20021;-38
2021/04/17 02:21:07;;;;;;;3.28;2.97;;;16.50;28.40;;;;;;5033222;28;20033;-38
2021/04/17 02:23:34;;;;;;;3.35;3.05;;;16.50;28.40;;;;;;5040816;28;20630;-37
2021/04/17 02:26:00;;;;;;;3.42;2.90;;;16.60;28.40;;;;;;5035013;28;20028;-37
2021/04/17 02:28:27;;;;;;;3.63;3.08;;;16.60;29.10;;;;;;5036545;28;20564;-37
2021/04/17 02:30:53;;;;;;;3.25;2.95;;;16.50;28.30;;;;;;5033481;28;20043;-37
2021/04/17 02:33:19;;;;;;;3.10;2.90;;;16.60;28.30;;;;;;5032406;28;20183;-38
2021/04/17 02:35:45;;;;;;;2.72;2.50;;;16.60;28.20;;;;;;5023597;28;20021;-39
2021/04/17 02:38:11;;;;;;;3.13;2.80;;;16.60;28.20;;;;;;5034020;28;20534;-37
2021/04/17 02:40:37;;;;;;;3.33;3.03;;;16.60;28.20;;;;;;5047101;28;20024;-37
2021/04/17 02:43:03;;;;;;;3.90;3.60;;;16.60;28.20;;;;;;5044899;28;20021;-36
2021/04/17 02:45:29;;;;;;;3.47;3.08;;;16.60;28.20;;;;;;5037160;28;20036;-38
2021/04/17 02:47:54;;;;;;;3.47;3.17;;;16.60;28.20;;;;;;5040482;28;20142;-38
2021/04/17 02:50:20;;;;;;;3.20;2.90;;;16.60;28.20;;;;;;5029162;28;20709;-37
2021/04/17 02:52:48;;;;;;;3.22;2.90;;;16.60;28.20;;;;;;5042641;28;20114;-36
2021/04/17 02:55:14;;;;;;;2.97;2.70;;;16.60;28.20;;;;;;5038144;28;20021;-37
2021/04/17 02:57:40;;;;;;;3.30;3.00;;;16.60;28.20;;;;;;5038746;28;20048;-36
2021/04/17 03:00:07;;;;;;;3.20;2.80;;;16.60;28.30;;;;;;5046839;28;20025;-38
2021/04/17 03:02:33;;;;;;;3.17;2.92;;;16.60;28.20;;;;;;5033372;28;20192;-37
2021/04/17 03:04:59;;;;;;;3.40;3.10;;;16.70;28.20;;;;;;5033120;28;20033;-38
2021/04/17 03:07:25;;;;;;;3.38;3.08;;;16.70;28.10;;;;;;5032898;28;20039;-39
2021/04/17 03:09:50;;;;;;;3.63;3.33;;;16.60;28.10;;;;;;5046322;28;20040;-36
2021/04/17 03:12:16;;;;;;;3.50;3.20;;;16.60;28.10;;;;;;5040706;28;20026;-36
2021/04/17 03:14:42;;;;;;;3.30;3.00;;;16.60;28.10;;;;;;5031784;28;20512;-35
2021/04/17 03:17:08;;;;;;;3.35;3.05;;;16.70;28.20;;;;;;5025937;28;20030;-39
2021/04/17 03:19:34;;;;;;;3.03;2.83;;;16.70;28.20;;;;;;5046382;28;20025;-39
2021/04/17 03:22:00;;;;;;;3.13;2.83;;;16.70;28.10;;;;;;5030350;28;20040;-34
2021/04/17 03:24:26;;;;;;;3.20;2.90;;;16.70;28.20;;;;;;5037259;28;20025;-38
2021/04/17 03:26:52;;;;;;;3.35;3.05;;;16.70;28.00;;;;;;5036875;28;20021;-37
2021/04/17 03:29:17;;;;;;;3.50;3.10;;;16.70;28.00;;;;;;5034991;28;20113;-36
2021/04/17 03:31:44;;;;;;;3.92;2.90;;;16.70;28.00;;;;;;5025157;28;20038;-37
2021/04/17 03:34:10;;;;;;;4.22;2.78;;;16.70;28.00;;;;;;5024830;28;20116;-35
2021/04/17 03:36:36;;;;;;;3.05;2.85;;;16.70;28.00;;;;;;5029046;28;20108;-38
2021/04/17 03:39:02;;;;;;;3.38;3.05;;;16.70;28.00;;;;;;5034770;28;20397;-37
2021/04/17 03:41:28;;;;;;;3.03;2.83;;;16.70;28.00;;;;;;5030128;28;20631;-37
2021/04/17 03:43:54;;;;;;;3.30;3.00;;;16.70;28.00;;;;;;5026570;28;20108;-38
2021/04/17 03:46:20;;;;;;;2.88;2.67;;;16.70;28.10;;;;;;5019871;28;20029;-39
2021/04/17 03:48:45;;;;;;;3.65;3.20;;;16.70;28.00;;;;;;5029294;28;20042;-36
2021/04/17 03:51:11;;;;;;;3.58;3.28;;;16.70;28.10;;;;;;5025070;28;20108;-37
2021/04/17 03:53:36;;;;;;;3.53;3.22;;;16.70;28.10;;;;;;5031101;28;20037;-37
2021/04/17 03:56:02;;;;;;;3.40;2.90;;;16.70;28.20;;;;;;5026391;28;20471;-38
2021/04/17 03:58:28;;;;;;;3.38;3.08;;;16.70;28.20;;;;;;5035458;28;20037;-39
2021/04/17 04:00:53;;;;;;;3.60;3.10;;;16.70;28.20;;;;;;5025484;28;20104;-38
2021/04/17 04:03:19;;;;;;;3.53;3.22;;;16.70;28.20;;;;;;5028079;28;20100;-38
2021/04/17 04:05:45;;;;;;;3.42;3.13;;;16.60;28.10;;;;;;5024174;28;20415;-36
2021/04/17 04:08:10;;;;;;;3.65;3.35;;;16.60;28.20;;;;;;5034102;28;20021;-36
2021/04/17 04:10:36;;;;;;;3.33;3.05;;;16.60;28.10;;;;;;5030846;28;20029;-40
2021/04/17 04:13:02;;;;;;;3.70;3.40;;;16.60;28.20;;;;;;5025491;28;20035;-38
2021/04/17 04:15:27;;;;;;;3.60;3.30;;;16.60;28.20;;;;;;5024341;28;20044;-37
2021/04/17 04:17:53;;;;;;;4.10;3.22;;;16.60;28.30;;;;;;5027285;28;20462;-38
2021/04/17 04:20:19;;;;;;;3.70;3.40;;;16.60;28.30;;;;;;5035632;28;20036;-38
2021/04/17 04:22:44;;;;;;;3.72;3.30;;;16.60;28.30;;;;;;5028298;28;20049;-37
2021/04/17 04:25:10;;;;;;;3.67;3.38;;;16.50;28.30;;;;;;5029187;28;20025;-35
2021/04/17 04:27:37;;;;;;;3.45;3.03;;;16.50;28.20;;;;;;5027367;28;20468;-38
2021/04/17 04:30:05;;;;;;;3.70;3.40;;;16.60;28.30;;;;;;5045653;28;20442;-38
2021/04/17 04:32:31;;;;;;;3.67;3.38;;;16.60;28.40;;;;;;5028350;28;20034;-37
2021/04/17 04:34:56;;;;;;;4.82;3.55;;;16.50;28.20;;;;;;5021822;28;20294;-38
2021/04/17 04:37:22;;;;;;;3.45;3.15;;;16.50;28.20;;;;;;5032554;28;20341;-38
2021/04/17 04:39:48;;;;;;;3.90;3.50;;;16.60;28.20;;;;;;5045200;28;20037;-36
2021/04/17 04:42:13;;;;;;;3.40;3.10;;;16.60;28.30;;;;;;5029890;28;20477;-37
2021/04/17 04:44:39;;;;;;;3.85;3.28;;;16.60;28.20;;;;;;5029674;28;20420;-38
2021/04/17 04:47:05;;;;;;;3.85;3.50;;;16.60;28.20;;;;;;5024730;28;20095;-40
2021/04/17 04:49:30;;;;;;;3.58;3.25;;;16.60;28.20;;;;;;5033987;28;20036;-37
2021/04/17 04:51:56;;;;;;;3.80;3.40;;;16.60;28.20;;;;;;5029862;28;20029;-37
2021/04/17 04:54:22;;;;;;;3.70;3.40;;;16.60;28.30;;;;;;5032006;28;20017;-37
2021/04/17 04:56:47;;;;;;;3.85;3.45;;;16.60;28.30;;;;;;5030331;28;20041;-39
2021/04/17 04:59:13;;;;;;;3.92;3.53;;;16.60;28.40;;;;;;5028820;28;20033;-37
2021/04/17 05:01:39;;;;;;;3.70;3.40;;;16.60;28.30;;;;;;5025345;28;20037;-35
2021/04/17 05:04:05;;;;;;;3.80;3.50;;;16.50;28.30;;;;;;5024553;28;20332;-37
2021/04/17 05:06:31;;;;;;;4.25;3.50;;;16.50;29.00;;;;;;5029603;28;20049;-37
2021/04/17 05:08:57;;;;;;;3.65;3.35;;;16.50;28.30;;;;;;5024148;28;20110;-38
2021/04/17 05:11:22;;;;;;;3.95;3.60;;;16.60;28.30;;;;;;5028810;28;20025;-37
2021/04/17 05:13:48;;;;;;;4.05;3.70;;;16.60;28.50;;;;;;5040086;28;20460;-38
2021/04/17 05:16:14;;;;;;;3.70;3.40;;;16.50;28.40;;;;;;5036245;28;20033;-39
2021/04/17 05:18:39;;;;;;;3.85;3.45;;;16.50;28.30;;;;;;5047827;28;20180;-38
2021/04/17 05:21:05;;;;;;;3.83;3.53;;;16.60;28.40;;;;;;5032161;28;20155;-38
2021/04/17 05:23:31;;;;;;;4.13;3.72;;;16.50;28.40;;;;;;5030105;28;20215;-39
2021/04/17 05:25:57;;;;;;;4.28;3.42;;;16.60;28.40;;;;;;5019990;28;20026;-35
2021/04/17 05:28:22;;;;;;;4.40;4.00;;;16.50;28.50;;;;;;5026317;28;20014;-37
2021/04/17 05:30:48;;;;;;;4.50;4.05;;;16.60;28.50;;;;;;5026083;28;20051;-40
2021/04/17 05:33:14;;;;;;;3.92;3.53;;;16.60;28.50;;;;;;5021742;28;20039;-38
2021/04/17 05:35:39;;;;;;;4.18;3.78;;;16.50;28.50;;;;;;5024145;28;20359;-36
2021/04/17 05:38:05;;;;;;;4.00;3.60;;;16.50;28.50;;;;;;5031554;28;20076;-35
2021/04/17 05:40:30;;;;;;;4.20;3.58;;;16.50;28.50;;;;;;5028989;28;20075;-39
2021/04/17 05:42:56;;;;;;;4.10;3.70;;;16.50;29.30;;;;;;5029238;28;20509;-36
2021/04/17 05:45:22;;;;;;;4.43;4.03;;;16.50;28.60;;;;;;5027874;28;20029;-37
2021/04/17 05:47:47;;;;;;;4.00;3.60;;;16.50;28.60;;;;;;5032464;28;20034;-37
2021/04/17 05:50:13;;;;;;;4.30;3.90;;;16.50;28.50;;;;;;5029486;28;20392;-37
2021/04/17 05:52:39;;;;;;;4.28;3.88;;;16.50;28.50;;;;;;5028373;28;20676;-36
2021/04/17 05:55:05;;;;;;;4.35;3.97;;;16.50;28.60;;;;;;5027910;28;20390;-38
2021/04/17 05:57:31;;;;;;;4.53;3.72;;;16.50;28.60;;;;;;5034898;28;20029;-35
2021/04/17 05:59:57;;;;;;;4.18;3.78;;;16.50;28.60;;;;;;5035327;28;20103;-37
2021/04/17 06:02:24;;;;;;;4.75;4.20;;;16.50;28.60;;;;;;5023945;28;20492;-37
2021/04/17 06:04:50;;;;;;;4.32;3.92;;;16.50;28.60;;;;;;5032233;28;20635;-34
2021/04/17 06:07:15;;;;;;;4.68;3.63;;;16.50;28.70;;;;;;5028000;28;20028;-36
2021/04/17 06:09:41;;;;;;;4.82;3.95;;;16.50;28.60;;;;;;5029733;28;20021;-38
2021/04/17 06:12:07;;;;;;;4.47;4.05;;;16.50;28.70;;;;;;5026706;28;20473;-37
2021/04/17 06:14:32;;;;;;;4.60;4.20;;;16.50;28.70;;;;;;5025218;28;20037;-37
2021/04/17 06:16:58;;;;;;;4.20;3.78;;;16.50;28.70;;;;;;5020555;28;20088;-34
2021/04/17 06:19:24;;;;;;;4.72;4.25;;;16.60;28.70;;;;;;5032945;28;20021;-36
2021/04/17 06:21:49;;;;;;;4.45;4.10;;;16.50;28.70;;;;;;5024447;28;20120;-37
2021/04/17 06:24:15;;;;;;;4.60;3.95;;;16.60;28.80;;;;;;5026549;28;20388;-38
2021/04/17 06:26:42;;;;;;;4.47;4.07;;;16.50;28.70;;;;;;5025740;28;20029;-37
2021/04/17 06:29:08;;;;;;;4.00;3.70;;;16.50;28.80;;;;;;5027555;28;20034;-38
2021/04/17 06:31:33;;;;;;;4.97;4.47;;;16.60;28.80;;;;;;5021786;28;20144;-37
2021/04/17 06:33:59;;;;;;;4.00;3.65;;;16.50;28.80;;;;;;5024721;28;20045;-36
2021/04/17 06:36:24;;;;;;;4.57;4.18;;;16.50;28.80;;;;;;5027173;28;20484;-36
2021/04/17 06:38:50;;;;;;;4.95;4.28;;;16.60;28.80;;;;;;5030926;28;20452;-39
2021/04/17 06:41:17;;;;;;;4.20;3.90;;;16.50;28.80;;;;;;5026706;28;20033;-36
2021/04/17 06:43:43;;;;;;;4.95;4.50;;;16.50;28.80;;;;;;5028098;28;20037;-39
2021/04/17 06:46:13;;;;;;;4.55;4.15;;;16.50;28.80;;;;;;5029908;28;20033;-37
2021/04/17 06:48:40;;;;;;;4.53;4.13;;;16.50;28.80;;;;;;5028068;28;20400;-38
2021/04/17 06:51:11;;;;;;;5.78;4.10;;;16.50;28.90;;;;;;5032207;28;20060;-37
2021/04/17 06:53:39;;;;;;;4.40;4.00;;;16.50;28.80;;;;;;5028498;28;20020;-33
2021/04/17 06:56:05;;;;;;;5.22;4.72;;;16.50;28.90;;;;;;5020470;28;20100;-38
2021/04/17 06:58:31;;;;;;;4.38;3.97;;;16.60;28.90;;;;;;5015337;28;20038;-35
2021/04/17 07:00:58;;;;;;;4.60;4.20;;;16.60;28.90;;;;;;5022586;28;20099;-37
2021/04/17 07:03:24;;;;;;;5.05;4.55;;;16.60;28.90;;;;;;5027380;28;20025;-37
2021/04/17 07:05:49;;;;;;;5.10;4.60;;;16.60;29.00;;;;;;5022636;28;20159;-37
2021/04/17 07:08:15;;;;;;;4.68;3.92;;;16.60;28.90;;;;;;5019522;28;20057;-36
2021/04/17 07:10:41;;;;;;;4.45;4.10;;;16.60;28.90;;;;;;5019051;28;20032;-39
2021/04/17 07:13:07;;;;;;;5.35;4.70;;;16.60;28.90;;;;;;5023481;28;20032;-39
2021/04/17 07:15:36;;;;;;;4.78;4.30;;;16.50;29.00;;;;;;5027935;28;20037;-36
2021/04/17 07:18:27;;;;;;;4.68;4.28;;;16.60;29.00;;;;;;5026761;28;20661;-36
2021/04/17 07:20:54;;;;;;;4.82;4.28;;;16.60;29.00;;;;;;5032228;28;20048;-36
2021/04/17 07:23:31;;;;;;;4.95;4.45;;;16.50;29.00;;;;;;5030292;28;20100;-39
2021/04/17 07:26:09;;;;;;;4.75;4.28;;;16.60;29.10;;;;;;5025356;28;20083;-36
2021/04/17 07:28:36;;;;;;;4.55;4.15;;;16.60;29.10;;;;;;5030773;28;20014;-37
2021/04/17 07:31:03;;;;;;;4.85;4.35;;;16.50;29.10;;;;;;5021977;28;20033;-38
2021/04/17 07:33:30;;;;;;;4.50;4.10;;;16.60;29.10;;;;;;5023375;28;20017;-38
2021/04/17 07:35:56;;;;;;;4.95;4.22;;;16.60;29.10;;;;;;5029317;28;20370;-37
2021/04/17 07:38:24;;;;;;;5.18;4.68;;;16.60;29.10;;;;;;5031076;28;20048;-38
2021/04/17 07:41:12;;;;;;;4.68;4.28;;;16.60;29.20;;;;;;5029401;28;20508;-36
2021/04/17 07:44:03;;;;;;;5.30;4.68;;;16.60;29.20;;;;;;5029540;28;20061;-36
2021/04/17 07:46:32;;;;;;;5.07;4.53;;;16.60;29.20;;;;;;5028236;28;20369;-36
2021/04/17 07:49:15;;;;;;;4.93;4.43;;;16.60;29.30;;;;;;5029404;28;20380;-36
2021/04/17 07:52:05;;;;;;;4.85;4.38;;;16.60;29.30;;;;;;5030010;28;20045;-37
2021/04/17 07:54:31;;;;;;;5.43;4.80;;;16.60;29.40;;;;;;5030659;28;20400;-36
2021/04/17 07:57:09;;;;;;;4.68;4.28;;;16.60;29.40;;;;;;5039386;28;20400;-40
2021/04/17 07:59:38;;;;;;;6.25;4.88;;;16.70;29.50;;;;;;5037975;28;20123;-35
2021/04/17 08:02:04;;;;;;;5.75;4.90;;;16.60;29.40;;;;;;5040201;28;20037;-35
2021/04/17 08:04:30;;;;;;;5.70;5.10;;;16.60;29.40;;;;;;5026585;28;20504;-38
2021/04/17 08:06:57;;;;;;;5.32;4.82;;;16.60;29.40;;;;;;5041459;28;20097;-38
2021/04/17 08:09:25;;;;;;;5.38;4.85;;;16.60;29.40;;;;;;5031645;28;20037;-37
2021/04/17 08:12:00;;;;;;;5.27;4.77;;;16.70;29.50;;;;;;5037853;28;20056;-38
2021/04/17 08:14:28;;;;;;;5.50;4.78;;;16.70;29.50;;;;;;5026655;28;20021;-40
2021/04/17 08:16:54;;;;;;;5.30;4.75;;;16.60;29.60;;;;;;5047283;28;20021;-36
2021/04/17 08:19:21;;;;;;;5.70;5.20;;;16.70;29.60;;;;;;5024039;28;20777;-37
2021/04/17 08:21:48;;;;;;;5.40;4.90;;;16.70;29.60;;;;;;5023901;28;20040;-37
2021/04/17 08:24:20;;;;;;;5.47;4.93;;;16.70;29.60;;;;;;5024813;28;20067;-38
2021/04/17 08:26:46;;;;;;;5.50;4.70;;;16.70;29.50;;;;;;5026725;28;20025;-37
2021/04/17 08:29:11;;;;;;;5.30;4.80;;;16.70;29.60;;;;;;5030341;28;20623;-35
2021/04/17 08:31:38;;;;;;;5.07;4.57;;;16.70;29.70;;;;;;5037855;28;20140;-37
2021/04/17 08:34:21;;;;;;;5.40;4.90;;;16.70;29.80;;;;;;5026228;28;20036;-36
2021/04/17 08:36:52;;;;;;;5.85;5.18;;;16.70;30.40;;;;;;5022856;28;20037;-36
2021/04/17 08:39:35;;;;;;;5.97;5.22;;;16.70;29.70;;;;;;5023842;28;20496;-36
2021/04/17 08:42:04;;;;;;;5.60;5.05;;;16.70;29.60;;;;;;5025060;28;20112;-36
2021/04/17 08:44:33;;;;;;;;;;;16.80;29.70;;;;;;5025232;28;20108;-36
2021/04/17 08:47:00;;;;;;;6.22;4.82;;;16.80;29.80;;;;;;5022292;28;20380;-37
2021/04/17 08:49:32;;;;;;;5.55;4.97;;;16.70;29.80;;;;;;5032966;28;20025;-37
2021/04/17 08:52:20;;;;;;;4.72;4.20;;;16.70;29.80;;;;;;5031299;28;20025;-38
2021/04/17 08:55:11;;;;;;;4.60;4.20;;;16.70;29.90;;;;;;5019143;28;20120;-36
2021/04/17 08:57:36;;;;;;;4.97;3.80;;;16.60;29.90;;;;;;5015928;28;20041;-37
2021/04/17 09:00:04;;;;;;;4.57;4.15;;;16.60;30.00;;;;;;5027439;28;20116;-36
2021/04/17 09:02:41;;;;;;;4.45;4.05;;;16.60;30.00;;;;;;5032281;28;20045;-35
2021/04/17 09:05:12;;;;;;;4.38;3.97;;;16.60;30.00;;;;;;5031695;28;20105;-38
2021/04/17 09:07:44;;;;;;;4.97;3.67;;;16.60;30.00;;;;;;5018695;28;20029;-38
2021/04/17 09:10:22;;;;;;;4.10;3.70;;;16.50;30.00;;;;;;5022522;28;20076;-37
2021/04/17 09:13:07;;;;;;;4.00;3.60;;;16.60;30.00;;;;;;5030660;28;20025;-34
2021/04/17 09:15:57;;;;;;;3.50;3.20;;;16.60;30.10;;;;;;5032399;28;20042;-33
2021/04/17 09:18:36;;;;;;;4.10;3.33;;;16.50;30.10;;;;;;5027616;28;20029;-39
2021/04/17 09:21:22;;;;;;;;;;;16.60;30.00;;;;;;5029752;28;20033;-37
2021/04/17 09:23:52;;;;;;;4.40;3.53;;;16.60;30.00;;;;;;5019677;28;19925;-35
2021/04/17 09:26:29;;;;;;;3.22;2.95;;;16.60;30.00;;;;;;5018660;28;20030;-36
2021/04/17 09:28:57;;;;;;;3.17;2.88;;;16.60;30.10;;;;;;5027840;28;20029;-36
2021/04/17 09:31:23;;;;;;;3.33;3.03;;;16.60;30.10;;;;;;5021796;28;20533;-36
2021/04/17 09:34:02;;;;;;;4.25;3.40;;;16.60;30.20;;;;;;5024014;28;20295;-37
2021/04/17 09:36:29;;;;;;;5.13;3.80;;;16.60;30.20;;;;;;5025913;28;20052;-36
2021/04/17 09:38:55;;;;;;;4.68;3.40;;;16.60;30.30;;;;;;5031346;28;20576;-37
2021/04/17 09:41:21;;;;;;;4.80;3.40;;;16.70;30.30;;;;;;5023564;28;20037;-34
2021/04/17 09:43:56;;;;;;;4.28;3.30;;;16.70;30.30;;;;;;5023882;28;20029;-34
2021/04/17 09:46:23;;;;;;;5.18;3.40;;;16.70;30.30;;;;;;5022490;28;20025;-36
2021/04/17 09:48:49;;;;;;;5.13;3.30;;;16.70;30.30;;;;;;5027609;28;20513;-34
2021/04/17 09:51:19;;;;;;;4.50;4.07;;;16.70;30.30;;;;;;5020856;28;20029;-38
2021/04/17 09:53:46;;;;;;;5.50;4.60;;;16.70;30.30;;;;;;5012054;28;20034;-39
2021/04/17 09:56:14;;;;;;;8.07;4.25;;;16.70;30.40;;;;;;5010194;28;20453;-38
2021/04/17 09:58:44;;;;;;;7.47;3.83;;;16.70;30.40;;;;;;5025776;28;20025;-36
2021/04/17 10:01:18;;;;;;;10.10;4.18;;;16.70;30.50;;;;;;5023234;28;20045;-36
2021/04/17 10:04:00;;;;;;;9.07;4.78;;;16.70;30.70;;;;;;5019292;28;20041;-38
2021/04/17 10:06:28;;;;;;;11.20;5.30;;;16.80;30.90;;;;;;5026451;28;20025;-38
2021/04/17 10:09:16;;;;;;;15.27;5.97;;;16.80;30.60;;;;;;5025911;28;20025;-40
2021/04/17 10:11:43;;;;;;;12.07;6.10;;;16.80;30.60;;;;;;5023232;28;20028;-37
2021/04/17 10:14:13;;;;;;;9.80;5.63;;;16.80;30.70;;;;;;5028490;28;20026;-40
2021/04/17 10:16:47;;;;;;;9.98;7.10;;;16.70;30.60;;;;;;5026331;28;20022;-37
2021/04/17 10:19:18;;;;;;;10.95;7.93;;;16.60;30.40;;;;;;5030395;28;20029;-36
2021/04/17 10:21:46;;;;;;;12.10;8.52;;;16.20;30.30;;;;;;5024712;28;20373;-37
2021/04/17 10:24:21;;;;;;;9.30;8.18;;;15.90;31.20;;;;;;5019185;28;20428;-37
2021/04/17 10:26:58;;;;;;;11.52;8.30;;;15.50;30.70;;;;;;5025701;28;20571;-35
2021/04/17 10:29:43;;;;;;;10.32;8.13;;;15.40;31.00;;;;;;5031720;28;20021;-36
2021/04/17 10:32:25;;;;;;;10.85;8.50;;;15.20;31.70;;;;;;5027817;28;20189;-35
2021/04/17 10:34:53;;;;;;;11.02;8.48;;;14.80;32.80;;;;;;5015052;28;20021;-36
2021/04/17 10:37:20;;;;;;;;;;;14.40;32.40;;;;;;5026555;28;20072;-36
2021/04/17 10:40:08;;;;;;;11.73;8.57;;;14.00;33.20;;;;;;5044681;28;20916;-35
2021/04/17 10:43:01;;;;;;;9.85;8.60;;;13.90;33.20;;;;;;5032955;28;20024;-34
2021/04/17 10:45:29;;;;;;;10.07;8.60;;;13.80;33.40;;;;;;5014344;28;20069;-35
2021/04/17 10:48:02;;;;;;;8.88;6.60;;;13.80;34.30;;;;;;5016562;28;22028;-34
2021/04/17 10:50:32;;;;;;;7.40;6.63;;;14.10;34.30;;;;;;5015878;28;20025;-37
2021/04/17 10:53:10;;;;;;;9.77;6.82;;;14.40;34.20;;;;;;5009254;28;20032;-36
2021/04/17 10:55:47;;;;;;;9.65;7.32;;;14.60;33.90;;;;;;5010732;28;20037;-36
2021/04/17 10:58:22;;;;;;;8.38;6.70;;;14.90;34.90;;;;;;5013048;28;20382;-35
2021/04/17 11:00:57;;;;;;;10.13;6.72;;;15.00;33.30;;;;;;5021519;28;20049;-35
2021/04/17 11:03:25;;;;;;;8.68;6.00;;;15.10;33.20;;;;;;5020632;28;20033;-39
2021/04/17 11:05:51;;;;;;;7.43;5.87;;;15.20;33.10;;;;;;5010767;28;20029;-33
2021/04/17 11:08:25;;;;;;;9.48;6.13;;;15.30;32.80;;;;;;5016428;28;20495;-34
2021/04/17 11:10:52;;;;;;;9.88;7.53;;;15.50;32.70;;;;;;5035881;28;20092;-37
2021/04/17 11:13:33;;;;;;;9.95;6.43;;;15.50;33.10;;;;;;5018717;28;20030;-38
2021/04/17 11:15:59;;;;;;;8.57;6.20;;;15.60;32.60;;;;;;5016698;28;20009;-38
2021/04/17 11:18:30;;;;;;;6.72;5.70;;;15.60;32.40;;;;;;5014136;28;20033;-37
2021/04/17 11:21:09;;;;;;;8.45;6.38;;;15.70;32.20;;;;;;5026290;28;20044;-36
2021/04/17 11:23:40;;;;;;;8.77;5.82;;;15.80;32.20;;;;;;5014727;28;20119;-38
2021/04/17 11:26:15;;;;;;;7.85;6.20;;;15.90;31.90;;;;;;5011942;28;20697;-36
2021/04/17 11:28:51;;;;;;;8.73;6.00;;;15.90;31.90;;;;;;5009647;28;20037;-34
2021/04/17 11:31:27;;;;;;;8.00;6.13;;;16.00;31.80;;;;;;5008694;28;20026;-35
2021/04/17 11:33:56;;;;;;;8.23;6.00;;;16.00;31.70;;;;;;5012776;28;20526;-39
2021/04/17 11:36:22;;;;;;;;;;;16.00;31.60;;;;;;5007491;28;20033;-39
2021/04/17 11:38:49;;;;;;;10.30;6.47;;;16.00;31.60;;;;;;5010773;28;19916;-40
2021/04/17 11:41:14;;;;;;;8.15;5.75;;;16.10;31.60;;;;;;5009293;28;20038;-38
2021/04/17 11:43:41;;;;;;;7.82;6.03;;;16.10;31.50;;;;;;5011986;28;20558;-38
2021/04/17 11:46:08;;;;;;;7.22;5.93;;;16.00;31.40;;;;;;5010514;28;20021;-34
2021/04/17 11:48:34;;;;;;;6.77;5.63;;;16.10;31.50;;;;;;5027734;28;20033;-36
2021/04/17 11:51:00;;;;;;;7.32;4.97;;;16.10;31.40;;;;;;5008930;28;20260;-37
2021/04/17 11:53:25;;;;;;;9.45;6.68;;;16.20;31.40;;;;;;5017679;28;20029;-36
2021/04/17 11:55:52;;;;;;;15.13;10.45;;;16.20;31.60;;;;;;5006532;28;20680;-36
2021/04/17 11:58:19;;;;;;;27.48;17.13;;;16.20;32.00;;;;;;5008194;28;20029;-35
2021/04/17 12:00:45;;;;;;;33.20;20.58;;;16.30;32.80;;;;;;5007969;28;20168;-37
2021/04/17 12:03:10;;;;;;;40.13;25.30;;;16.30;33.30;;;;;;5013076;28;20033;-38
2021/04/17 12:05:36;;;;;;;42.67;26.20;;;16.30;33.50;;;;;;5011028;28;20496;-36
2021/04/17 12:08:02;;;;;;;39.30;25.10;;;16.30;33.70;;;;;;5009380;28;20029;-35
2021/04/17 12:10:28;;;;;;;45.58;27.00;;;16.30;33.80;;;;;;5039976;28;20028;-38
2021/04/17 12:12:54;;;;;;;48.05;26.88;;;16.30;34.20;;;;;;5012421;28;20033;-38
2021/04/17 12:15:19;;;;;;;44.17;27.55;;;16.30;34.60;;;;;;5019463;28;20400;-36
2021/04/17 12:17:47;;;;;;;45.63;28.08;;;16.40;34.20;;;;;;5010264;28;20187;-36
2021/04/17 12:20:12;;;;;;;45.35;27.45;;;16.40;34.00;;;;;;5013617;28;20496;-37
2021/04/17 12:22:38;;;;;;;47.80;27.75;;;16.50;33.90;;;;;;5014332;28;20056;-35
2021/04/17 12:25:07;;;;;;;41.90;27.42;;;16.50;33.90;;;;;;5010864;28;20116;-37
2021/04/17 12:27:33;;;;;;;45.10;27.40;;;16.50;33.80;;;;;;5017336;28;20563;-38
2021/04/17 12:29:59;;;;;;;39.45;26.40;;;16.50;33.80;;;;;;5017644;28;20112;-36
2021/04/17 12:32:27;;;;;;;41.00;26.08;;;16.60;33.70;;;;;;5022590;28;20033;-36
2021/04/17 12:34:53;;;;;;;39.22;25.17;;;16.50;33.40;;;;;;5016286;28;20041;-37
2021/04/17 12:37:19;;;;;;;35.72;22.63;;;16.50;33.20;;;;;;5013777;28;20029;-33
2021/04/17 12:39:45;;;;;;;34.72;21.98;;;16.50;33.10;;;;;;5013644;28;20049;-37
2021/04/17 12:42:10;;;;;;;35.55;23.00;;;16.50;33.60;;;;;;5022279;28;20041;-36
2021/04/17 12:44:36;;;;;;;34.03;22.35;;;16.50;32.90;;;;;;5012972;28;20022;-35
2021/04/17 12:47:02;;;;;;;32.88;21.17;;;16.50;32.90;;;;;;5019175;28;20026;-39
2021/04/17 12:49:27;;;;;;;30.92;19.77;;;16.50;32.70;;;;;;5011896;28;20033;-38
2021/04/17 12:51:53;;;;;;;29.90;18.63;;;16.50;32.60;;;;;;5017464;28;20167;-37
2021/04/17 12:54:19;;;;;;;29.75;19.40;;;16.50;32.40;;;;;;5027745;28;20405;-37